Terminal Aerodrome Forecast
Issued by NWS Cleveland, OH

Home | Current Version | Previous Version | Text Only | Print | Product List | Glossary Off
Versions: 1 2 3 4 5 6 7 8 9 10 11 12 13 14 15 16 17 18

000
FTUS41 KCLE 262300
TAFCAK
TAF
KCAK 262335Z 2700/2724 31008KT P6SM OVC008
     FM270200 28006KT P6SM OVC015
     FM270500 30008KT P6SM BKN022
     FM271000 30008KT P6SM OVC018
     FM271700 31010KT P6SM BKN035=

USA.gov is the U.S. government's official web portal to all federal, state and local government web resources and services.